Main page
METAR-TAF:

METAR-TAF

Airports :

Cook Municipal Airport

Cook, Minnesota, United States

latitude: 47-49-19N, longitude: 092-41-22W, elevation: 405 m

Current weather observation

The report was made 23 minutes ago, at 06:35 UTC
Wind 5 kt from the Southwest
Temperature 6°C
Humidity 36%
Pressure 1012 hPa
Visibility: 16.1 km
Scattered clouds at a height of 8000 ft

METAR: KCQM 220635Z AUTO 23005KT 10SM SCT080 06/M08 A2987 RMK AO2

Time: 01:58 (06:58 UTC)


TAF: missing

Weather observations and forecasts of more than 4000 airports (METAR and TAF reports).

The available stations are represented by yellow and red dots on the map.

Hover mouse over dot to see the name of the station.

Then click to see weather observations and forecasts.

To change the map : click on the green buttons with a black cross to zoom in, on the green button with a dash to zoom out, or on the green arrows for adjacent maps.


METAR-TAF: